sensor_id;sensor_type;location;lat;lon;timestamp;temperature;humidity
71082;SHT31;58740;50.672;18.690;2022-07-29T00:00:15;18.59;50.51
71082;SHT31;58740;50.672;18.690;2022-07-29T00:03:02;18.59;50.61
71082;SHT31;58740;50.672;18.690;2022-07-29T00:05:30;18.58;50.53
71082;SHT31;58740;50.672;18.690;2022-07-29T00:07:58;18.57;50.63
71082;SHT31;58740;50.672;18.690;2022-07-29T00:10:25;18.56;50.66
71082;SHT31;58740;50.672;18.690;2022-07-29T00:12:53;18.56;50.70
71082;SHT31;58740;50.672;18.690;2022-07-29T00:15:21;18.56;50.72
71082;SHT31;58740;50.672;18.690;2022-07-29T00:17:49;18.54;50.79
71082;SHT31;58740;50.672;18.690;2022-07-29T00:20:17;18.52;50.75
71082;SHT31;58740;50.672;18.690;2022-07-29T00:22:45;18.50;50.95
71082;SHT31;58740;50.672;18.690;2022-07-29T00:25:12;18.50;50.93
71082;SHT31;58740;50.672;18.690;2022-07-29T00:27:40;18.48;50.96
71082;SHT31;58740;50.672;18.690;2022-07-29T00:30:08;18.49;51.04
71082;SHT31;58740;50.672;18.690;2022-07-29T00:32:36;18.46;50.92
71082;SHT31;58740;50.672;18.690;2022-07-29T00:35:04;18.46;50.86
71082;SHT31;58740;50.672;18.690;2022-07-29T00:37:51;18.43;51.07
71082;SHT31;58740;50.672;18.690;2022-07-29T00:40:19;18.38;51.16
71082;SHT31;58740;50.672;18.690;2022-07-29T00:42:50;18.37;51.18
71082;SHT31;58740;50.672;18.690;2022-07-29T00:45:19;18.36;51.36
71082;SHT31;58740;50.672;18.690;2022-07-29T00:47:49;18.34;51.23
71082;SHT31;58740;50.672;18.690;2022-07-29T00:50:17;18.32;51.13
71082;SHT31;58740;50.672;18.690;2022-07-29T00:52:45;18.28;51.37
71082;SHT31;58740;50.672;18.690;2022-07-29T00:55:14;18.25;51.44
71082;SHT31;58740;50.672;18.690;2022-07-29T00:57:43;18.23;51.62
71082;SHT31;58740;50.672;18.690;2022-07-29T01:00:14;18.22;51.54
71082;SHT31;58740;50.672;18.690;2022-07-29T01:02:46;18.18;51.52
71082;SHT31;58740;50.672;18.690;2022-07-29T01:05:19;18.14;51.69
71082;SHT31;58740;50.672;18.690;2022-07-29T01:07:51;18.12;51.73
71082;SHT31;58740;50.672;18.690;2022-07-29T01:10:21;18.09;51.84
71082;SHT31;58740;50.672;18.690;2022-07-29T01:12:52;18.08;51.91
71082;SHT31;58740;50.672;18.690;2022-07-29T01:15:23;18.09;52.32
71082;SHT31;58740;50.672;18.690;2022-07-29T01:18:09;18.09;52.30
71082;SHT31;58740;50.672;18.690;2022-07-29T01:29:19;18.00;52.72
71082;SHT31;58740;50.672;18.690;2022-07-29T01:32:14;17.97;52.89
71082;SHT31;58740;50.672;18.690;2022-07-29T01:37:32;17.91;52.95
71082;SHT31;58740;50.672;18.690;2022-07-29T01:42:57;17.87;53.11
71082;SHT31;58740;50.672;18.690;2022-07-29T01:51:02;17.80;53.24
71082;SHT31;58740;50.672;18.690;2022-07-29T01:53:45;17.76;53.30
71082;SHT31;58740;50.672;18.690;2022-07-29T01:56:20;17.75;53.49
71082;SHT31;58740;50.672;18.690;2022-07-29T01:58:53;17.73;53.61
71082;SHT31;58740;50.672;18.690;2022-07-29T02:01:24;17.75;53.46
71082;SHT31;58740;50.672;18.690;2022-07-29T02:03:54;17.72;53.60
71082;SHT31;58740;50.672;18.690;2022-07-29T02:06:24;17.70;53.70
71082;SHT31;58740;50.672;18.690;2022-07-29T02:08:54;17.70;53.64
71082;SHT31;58740;50.672;18.690;2022-07-29T02:11:25;17.70;53.59
71082;SHT31;58740;50.672;18.690;2022-07-29T02:13:54;17.69;53.51
71082;SHT31;58740;50.672;18.690;2022-07-29T02:16:26;17.67;53.51
71082;SHT31;58740;50.672;18.690;2022-07-29T02:18:58;17.65;53.67
71082;SHT31;58740;50.672;18.690;2022-07-29T02:21:29;17.66;53.66
71082;SHT31;58740;50.672;18.690;2022-07-29T02:23:59;17.66;53.70
71082;SHT31;58740;50.672;18.690;2022-07-29T02:26:29;17.67;53.76
71082;SHT31;58740;50.672;18.690;2022-07-29T02:29:00;17.67;53.85
71082;SHT31;58740;50.672;18.690;2022-07-29T02:31:30;17.67;53.83
71082;SHT31;58740;50.672;18.690;2022-07-29T02:34:05;17.67;53.84
71082;SHT31;58740;50.672;18.690;2022-07-29T02:36:36;17.68;53.65
71082;SHT31;58740;50.672;18.690;2022-07-29T02:39:05;17.67;53.63
71082;SHT31;58740;50.672;18.690;2022-07-29T02:41:40;17.68;53.85
71082;SHT31;58740;50.672;18.690;2022-07-29T02:44:16;17.69;53.86
71082;SHT31;58740;50.672;18.690;2022-07-29T02:46:59;17.68;53.93
71082;SHT31;58740;50.672;18.690;2022-07-29T02:52:29;17.69;54.00
71082;SHT31;58740;50.672;18.690;2022-07-29T02:57:47;17.67;53.89
71082;SHT31;58740;50.672;18.690;2022-07-29T03:00:23;17.65;54.12
71082;SHT31;58740;50.672;18.690;2022-07-29T03:02:57;17.63;53.96
71082;SHT31;58740;50.672;18.690;2022-07-29T03:05:29;17.61;54.15
71082;SHT31;58740;50.672;18.690;2022-07-29T03:08:02;17.58;54.09
71082;SHT31;58740;50.672;18.690;2022-07-29T03:10:33;17.57;54.28
71082;SHT31;58740;50.672;18.690;2022-07-29T03:13:04;17.56;54.35
71082;SHT31;58740;50.672;18.690;2022-07-29T03:15:34;17.54;54.36
71082;SHT31;58740;50.672;18.690;2022-07-29T03:18:03;17.54;54.26
71082;SHT31;58740;50.672;18.690;2022-07-29T03:20:33;17.54;54.25
71082;SHT31;58740;50.672;18.690;2022-07-29T03:23:01;17.53;54.32
71082;SHT31;58740;50.672;18.690;2022-07-29T03:25:29;17.54;54.53
71082;SHT31;58740;50.672;18.690;2022-07-29T03:27:58;17.57;54.55
71082;SHT31;58740;50.672;18.690;2022-07-29T03:30:26;17.56;54.45
71082;SHT31;58740;50.672;18.690;2022-07-29T03:32:55;17.56;54.40
71082;SHT31;58740;50.672;18.690;2022-07-29T03:35:25;17.57;54.33
71082;SHT31;58740;50.672;18.690;2022-07-29T03:37:52;17.58;54.26
71082;SHT31;58740;50.672;18.690;2022-07-29T03:40:42;17.59;54.25
71082;SHT31;58740;50.672;18.690;2022-07-29T03:43:14;17.59;54.38
71082;SHT31;58740;50.672;18.690;2022-07-29T03:45:47;17.59;54.23
71082;SHT31;58740;50.672;18.690;2022-07-29T03:48:21;17.59;54.49
71082;SHT31;58740;50.672;18.690;2022-07-29T03:50:53;17.62;54.44
71082;SHT31;58740;50.672;18.690;2022-07-29T03:53:20;17.63;54.29
71082;SHT31;58740;50.672;18.690;2022-07-29T03:55:50;17.63;54.13
71082;SHT31;58740;50.672;18.690;2022-07-29T03:58:22;17.65;54.33
71082;SHT31;58740;50.672;18.690;2022-07-29T04:00:53;17.67;54.31
71082;SHT31;58740;50.672;18.690;2022-07-29T04:03:23;17.67;54.38
71082;SHT31;58740;50.672;18.690;2022-07-29T04:05:57;17.68;54.32
71082;SHT31;58740;50.672;18.690;2022-07-29T04:08:30;17.71;54.34
71082;SHT31;58740;50.672;18.690;2022-07-29T04:10:59;17.73;54.28
71082;SHT31;58740;50.672;18.690;2022-07-29T04:13:29;17.75;54.25
71082;SHT31;58740;50.672;18.690;2022-07-29T04:15:57;17.78;54.30
71082;SHT31;58740;50.672;18.690;2022-07-29T04:18:26;17.81;54.25
71082;SHT31;58740;50.672;18.690;2022-07-29T04:20:54;17.83;54.14
71082;SHT31;58740;50.672;18.690;2022-07-29T04:23:22;17.86;53.91
71082;SHT31;58740;50.672;18.690;2022-07-29T04:25:50;17.88;53.88
71082;SHT31;58740;50.672;18.690;2022-07-29T04:28:17;17.91;53.92
71082;SHT31;58740;50.672;18.690;2022-07-29T04:30:45;17.95;53.94
71082;SHT31;58740;50.672;18.690;2022-07-29T04:33:13;18.00;53.79
71082;SHT31;58740;50.672;18.690;2022-07-29T04:35:41;18.05;53.54
71082;SHT31;58740;50.672;18.690;2022-07-29T04:38:18;18.08;53.43
71082;SHT31;58740;50.672;18.690;2022-07-29T04:40:46;18.13;53.35
71082;SHT31;58740;50.672;18.690;2022-07-29T04:43:16;18.17;53.37
71082;SHT31;58740;50.672;18.690;2022-07-29T04:45:49;18.23;53.23
71082;SHT31;58740;50.672;18.690;2022-07-29T04:48:16;18.28;53.20
71082;SHT31;58740;50.672;18.690;2022-07-29T04:50:44;18.34;52.99
71082;SHT31;58740;50.672;18.690;2022-07-29T04:53:11;18.38;52.79
71082;SHT31;58740;50.672;18.690;2022-07-29T04:55:39;18.42;52.72
71082;SHT31;58740;50.672;18.690;2022-07-29T04:58:07;18.48;52.62
71082;SHT31;58740;50.672;18.690;2022-07-29T05:00:35;18.52;52.69
71082;SHT31;58740;50.672;18.690;2022-07-29T05:03:03;18.59;52.48
71082;SHT31;58740;50.672;18.690;2022-07-29T05:05:31;18.65;52.57
71082;SHT31;58740;50.672;18.690;2022-07-29T05:07:59;18.71;52.41
71082;SHT31;58740;50.672;18.690;2022-07-29T05:10:26;18.76;52.31
71082;SHT31;58740;50.672;18.690;2022-07-29T05:12:54;18.82;52.06
71082;SHT31;58740;50.672;18.690;2022-07-29T05:15:22;18.87;51.86
71082;SHT31;58740;50.672;18.690;2022-07-29T05:17:49;18.91;51.89
71082;SHT31;58740;50.672;18.690;2022-07-29T05:20:17;18.97;51.78
71082;SHT31;58740;50.672;18.690;2022-07-29T05:22:45;19.04;51.42
71082;SHT31;58740;50.672;18.690;2022-07-29T05:25:13;19.08;51.33
71082;SHT31;58740;50.672;18.690;2022-07-29T05:27:41;19.12;51.22
71082;SHT31;58740;50.672;18.690;2022-07-29T05:30:09;19.19;51.14
71082;SHT31;58740;50.672;18.690;2022-07-29T05:32:37;19.25;51.00
71082;SHT31;58740;50.672;18.690;2022-07-29T05:35:05;19.31;50.85
71082;SHT31;58740;50.672;18.690;2022-07-29T05:37:33;19.37;50.79
71082;SHT31;58740;50.672;18.690;2022-07-29T05:40:02;19.45;50.80
71082;SHT31;58740;50.672;18.690;2022-07-29T05:42:31;19.52;50.31
71082;SHT31;58740;50.672;18.690;2022-07-29T05:44:59;19.60;49.79
71082;SHT31;58740;50.672;18.690;2022-07-29T05:47:26;19.66;49.61
71082;SHT31;58740;50.672;18.690;2022-07-29T05:49:54;19.75;49.22
71082;SHT31;58740;50.672;18.690;2022-07-29T05:52:22;19.84;49.18
71082;SHT31;58740;50.672;18.690;2022-07-29T05:54:51;19.94;48.82
71082;SHT31;58740;50.672;18.690;2022-07-29T05:57:19;20.03;48.52
71082;SHT31;58740;50.672;18.690;2022-07-29T05:59:50;20.10;48.13
71082;SHT31;58740;50.672;18.690;2022-07-29T06:02:18;20.20;47.86
71082;SHT31;58740;50.672;18.690;2022-07-29T06:04:46;20.30;47.78
71082;SHT31;58740;50.672;18.690;2022-07-29T06:07:14;20.40;47.72
71082;SHT31;58740;50.672;18.690;2022-07-29T06:09:43;20.52;47.44
71082;SHT31;58740;50.672;18.690;2022-07-29T06:12:11;20.61;47.10
71082;SHT31;58740;50.672;18.690;2022-07-29T06:14:39;20.72;47.16
71082;SHT31;58740;50.672;18.690;2022-07-29T06:17:07;20.83;46.66
71082;SHT31;58740;50.672;18.690;2022-07-29T06:19:35;20.90;45.66
71082;SHT31;58740;50.672;18.690;2022-07-29T06:22:03;20.95;46.11
71082;SHT31;58740;50.672;18.690;2022-07-29T06:24:31;21.05;46.16
71082;SHT31;58740;50.672;18.690;2022-07-29T06:26:59;21.13;45.78
71082;SHT31;58740;50.672;18.690;2022-07-29T06:29:27;21.20;45.53
71082;SHT31;58740;50.672;18.690;2022-07-29T06:31:54;21.28;45.53
71082;SHT31;58740;50.672;18.690;2022-07-29T06:34:22;21.35;45.52
71082;SHT31;58740;50.672;18.690;2022-07-29T06:36:50;21.43;45.19
71082;SHT31;58740;50.672;18.690;2022-07-29T06:39:20;21.48;45.13
71082;SHT31;58740;50.672;18.690;2022-07-29T06:41:48;21.53;45.45
71082;SHT31;58740;50.672;18.690;2022-07-29T06:44:17;21.60;45.03
71082;SHT31;58740;50.672;18.690;2022-07-29T06:46:46;21.63;44.95
71082;SHT31;58740;50.672;18.690;2022-07-29T06:49:17;21.68;45.31
71082;SHT31;58740;50.672;18.690;2022-07-29T06:51:44;21.77;45.39
71082;SHT31;58740;50.672;18.690;2022-07-29T06:54:12;21.89;45.42
71082;SHT31;58740;50.672;18.690;2022-07-29T06:56:40;21.98;45.24
71082;SHT31;58740;50.672;18.690;2022-07-29T06:59:09;22.04;44.90
71082;SHT31;58740;50.672;18.690;2022-07-29T07:01:40;22.09;44.99
71082;SHT31;58740;50.672;18.690;2022-07-29T07:04:10;22.14;44.90
71082;SHT31;58740;50.672;18.690;2022-07-29T07:06:39;22.19;44.95
71082;SHT31;58740;50.672;18.690;2022-07-29T07:09:07;22.26;45.05
71082;SHT31;58740;50.672;18.690;2022-07-29T07:11:35;22.28;45.03
71082;SHT31;58740;50.672;18.690;2022-07-29T07:14:03;22.33;45.08
71082;SHT31;58740;50.672;18.690;2022-07-29T07:16:31;22.40;45.19
71082;SHT31;58740;50.672;18.690;2022-07-29T07:18:59;22.48;45.32
71082;SHT31;58740;50.672;18.690;2022-07-29T07:21:28;22.56;45.09
71082;SHT31;58740;50.672;18.690;2022-07-29T07:23:58;22.61;45.07
71082;SHT31;58740;50.672;18.690;2022-07-29T07:26:26;22.64;45.13
71082;SHT31;58740;50.672;18.690;2022-07-29T07:28:55;22.70;45.11
71082;SHT31;58740;50.672;18.690;2022-07-29T07:31:23;22.69;45.14
71082;SHT31;58740;50.672;18.690;2022-07-29T07:33:51;22.67;45.07
71082;SHT31;58740;50.672;18.690;2022-07-29T07:36:20;22.68;45.36
71082;SHT31;58740;50.672;18.690;2022-07-29T07:38:49;22.72;45.28
71082;SHT31;58740;50.672;18.690;2022-07-29T07:41:20;22.78;45.37
71082;SHT31;58740;50.672;18.690;2022-07-29T07:43:49;22.86;45.46
71082;SHT31;58740;50.672;18.690;2022-07-29T07:46:17;22.93;45.18
71082;SHT31;58740;50.672;18.690;2022-07-29T07:48:45;22.97;45.20
71082;SHT31;58740;50.672;18.690;2022-07-29T07:51:12;23.00;45.02
71082;SHT31;58740;50.672;18.690;2022-07-29T07:53:40;23.00;45.10
71082;SHT31;58740;50.672;18.690;2022-07-29T07:56:08;23.07;45.23
71082;SHT31;58740;50.672;18.690;2022-07-29T07:58:38;23.12;45.10
71082;SHT31;58740;50.672;18.690;2022-07-29T08:01:07;23.17;45.13
71082;SHT31;58740;50.672;18.690;2022-07-29T08:03:37;23.21;45.16
71082;SHT31;58740;50.672;18.690;2022-07-29T08:06:05;23.29;45.18
71082;SHT31;58740;50.672;18.690;2022-07-29T08:08:33;23.37;45.42
71082;SHT31;58740;50.672;18.690;2022-07-29T08:11:01;23.45;45.55
71082;SHT31;58740;50.672;18.690;2022-07-29T08:13:36;23.55;45.21
71082;SHT31;58740;50.672;18.690;2022-07-29T08:16:06;23.60;45.20
71082;SHT31;58740;50.672;18.690;2022-07-29T08:18:43;23.65;45.54
71082;SHT31;58740;50.672;18.690;2022-07-29T08:21:13;23.69;45.44
71082;SHT31;58740;50.672;18.690;2022-07-29T08:23:45;23.71;45.19
71082;SHT31;58740;50.672;18.690;2022-07-29T08:26:28;23.70;45.31
71082;SHT31;58740;50.672;18.690;2022-07-29T08:28:55;23.66;45.24
71082;SHT31;58740;50.672;18.690;2022-07-29T08:31:23;23.56;45.60
71082;SHT31;58740;50.672;18.690;2022-07-29T08:33:51;23.51;45.84
71082;SHT31;58740;50.672;18.690;2022-07-29T08:36:19;23.42;46.03
71082;SHT31;58740;50.672;18.690;2022-07-29T08:38:48;23.42;46.15
71082;SHT31;58740;50.672;18.690;2022-07-29T08:41:17;23.46;46.16
71082;SHT31;58740;50.672;18.690;2022-07-29T08:43:47;23.49;46.02
71082;SHT31;58740;50.672;18.690;2022-07-29T08:46:16;23.50;46.11
71082;SHT31;58740;50.672;18.690;2022-07-29T08:48:45;23.57;46.26
71082;SHT31;58740;50.672;18.690;2022-07-29T08:51:14;23.63;46.20
71082;SHT31;58740;50.672;18.690;2022-07-29T08:53:46;23.64;46.18
71082;SHT31;58740;50.672;18.690;2022-07-29T08:56:17;23.61;45.86
71082;SHT31;58740;50.672;18.690;2022-07-29T08:58:46;23.62;45.97
71082;SHT31;58740;50.672;18.690;2022-07-29T09:01:22;23.64;45.89
71082;SHT31;58740;50.672;18.690;2022-07-29T09:04:10;23.67;45.90
71082;SHT31;58740;50.672;18.690;2022-07-29T09:06:42;23.71;45.76
71082;SHT31;58740;50.672;18.690;2022-07-29T09:09:13;23.69;45.77
71082;SHT31;58740;50.672;18.690;2022-07-29T09:11:42;23.66;45.70
71082;SHT31;58740;50.672;18.690;2022-07-29T09:14:11;23.65;45.90
71082;SHT31;58740;50.672;18.690;2022-07-29T09:16:54;23.65;46.03
71082;SHT31;58740;50.672;18.690;2022-07-29T09:21:57;23.61;45.99
71082;SHT31;58740;50.672;18.690;2022-07-29T09:27:17;23.63;46.37
71082;SHT31;58740;50.672;18.690;2022-07-29T09:30:05;23.61;46.39
71082;SHT31;58740;50.672;18.690;2022-07-29T09:32:54;23.62;46.43
71082;SHT31;58740;50.672;18.690;2022-07-29T09:35:24;23.60;46.11
71082;SHT31;58740;50.672;18.690;2022-07-29T09:37:53;23.59;46.32
71082;SHT31;58740;50.672;18.690;2022-07-29T09:40:25;23.63;46.45
71082;SHT31;58740;50.672;18.690;2022-07-29T09:42:55;23.63;46.38
71082;SHT31;58740;50.672;18.690;2022-07-29T09:48:12;23.66;46.50
71082;SHT31;58740;50.672;18.690;2022-07-29T09:50:51;23.67;46.45
71082;SHT31;58740;50.672;18.690;2022-07-29T09:53:53;23.68;46.44
71082;SHT31;58740;50.672;18.690;2022-07-29T09:56:13;23.70;46.41
71082;SHT31;58740;50.672;18.690;2022-07-29T09:58:41;23.73;46.63
71082;SHT31;58740;50.672;18.690;2022-07-29T10:01:09;23.74;46.46
71082;SHT31;58740;50.672;18.690;2022-07-29T10:03:50;23.71;46.31
71082;SHT31;58740;50.672;18.690;2022-07-29T10:06:19;23.67;46.34
71082;SHT31;58740;50.672;18.690;2022-07-29T10:08:47;23.67;46.75
71082;SHT31;58740;50.672;18.690;2022-07-29T10:11:17;23.70;46.65
71082;SHT31;58740;50.672;18.690;2022-07-29T10:13:47;23.71;46.56
71082;SHT31;58740;50.672;18.690;2022-07-29T10:16:16;23.72;46.81
71082;SHT31;58740;50.672;18.690;2022-07-29T10:18:45;23.74;46.80
71082;SHT31;58740;50.672;18.690;2022-07-29T10:21:14;23.76;46.77
71082;SHT31;58740;50.672;18.690;2022-07-29T10:24:02;23.81;46.80
71082;SHT31;58740;50.672;18.690;2022-07-29T10:26:41;23.83;46.78
71082;SHT31;58740;50.672;18.690;2022-07-29T10:29:09;23.85;46.80
71082;SHT31;58740;50.672;18.690;2022-07-29T10:31:48;23.85;46.46
71082;SHT31;58740;50.672;18.690;2022-07-29T10:37:58;23.87;46.26
71082;SHT31;58740;50.672;18.690;2022-07-29T10:40:48;23.88;46.35
71082;SHT31;58740;50.672;18.690;2022-07-29T10:43:50;23.94;46.53
71082;SHT31;58740;50.672;18.690;2022-07-29T10:46:22;23.99;46.63
71082;SHT31;58740;50.672;18.690;2022-07-29T10:49:04;24.04;46.70
71082;SHT31;58740;50.672;18.690;2022-07-29T10:51:50;24.11;46.84
71082;SHT31;58740;50.672;18.690;2022-07-29T10:57:21;24.16;46.52
71082;SHT31;58740;50.672;18.690;2022-07-29T11:02:45;24.10;46.80
71082;SHT31;58740;50.672;18.690;2022-07-29T11:05:18;24.07;46.81
71082;SHT31;58740;50.672;18.690;2022-07-29T11:10:47;23.98;46.74
71082;SHT31;58740;50.672;18.690;2022-07-29T11:16:16;23.92;46.97
71082;SHT31;58740;50.672;18.690;2022-07-29T11:21:40;23.87;47.14
71082;SHT31;58740;50.672;18.690;2022-07-29T11:24:25;23.86;47.24
71082;SHT31;58740;50.672;18.690;2022-07-29T11:27:14;23.83;47.36
71082;SHT31;58740;50.672;18.690;2022-07-29T11:29:48;23.82;47.44
71082;SHT31;58740;50.672;18.690;2022-07-29T11:32:35;23.78;47.63
71082;SHT31;58740;50.672;18.690;2022-07-29T11:44:00;23.70;48.07
71082;SHT31;58740;50.672;18.690;2022-07-29T11:46:46;23.69;48.24
71082;SHT31;58740;50.672;18.690;2022-07-29T11:49:21;23.67;49.19
71082;SHT31;58740;50.672;18.690;2022-07-29T11:51:59;23.63;50.10
71082;SHT31;58740;50.672;18.690;2022-07-29T11:54:32;23.58;51.17
71082;SHT31;58740;50.672;18.690;2022-07-29T11:57:22;23.50;52.09
71082;SHT31;58740;50.672;18.690;2022-07-29T12:00:06;23.43;53.17
71082;SHT31;58740;50.672;18.690;2022-07-29T12:02:41;23.33;53.54
71082;SHT31;58740;50.672;18.690;2022-07-29T12:05:48;23.26;54.39
71082;SHT31;58740;50.672;18.690;2022-07-29T12:08:19;23.18;55.36
71082;SHT31;58740;50.672;18.690;2022-07-29T12:10:50;23.13;55.91
71082;SHT31;58740;50.672;18.690;2022-07-29T12:13:20;23.07;56.74
71082;SHT31;58740;50.672;18.690;2022-07-29T12:16:03;23.00;56.76
71082;SHT31;58740;50.672;18.690;2022-07-29T12:18:32;22.93;56.90
71082;SHT31;58740;50.672;18.690;2022-07-29T12:21:00;22.89;58.27
71082;SHT31;58740;50.672;18.690;2022-07-29T12:23:31;22.86;58.96
71082;SHT31;58740;50.672;18.690;2022-07-29T12:26:05;22.80;59.03
71082;SHT31;58740;50.672;18.690;2022-07-29T12:28:37;22.75;60.04
71082;SHT31;58740;50.672;18.690;2022-07-29T12:31:12;22.70;60.65
71082;SHT31;58740;50.672;18.690;2022-07-29T12:34:01;22.67;60.61
71082;SHT31;58740;50.672;18.690;2022-07-29T12:36:29;22.67;60.67
71082;SHT31;58740;50.672;18.690;2022-07-29T12:38:57;22.64;60.65
71082;SHT31;58740;50.672;18.690;2022-07-29T12:41:27;22.61;60.71
71082;SHT31;58740;50.672;18.690;2022-07-29T12:43:56;22.59;60.93
71082;SHT31;58740;50.672;18.690;2022-07-29T12:46:24;22.57;61.28
71082;SHT31;58740;50.672;18.690;2022-07-29T12:48:52;22.54;61.50
71082;SHT31;58740;50.672;18.690;2022-07-29T12:51:29;22.51;62.01
71082;SHT31;58740;50.672;18.690;2022-07-29T12:54:10;22.51;62.30
71082;SHT31;58740;50.672;18.690;2022-07-29T12:56:42;22.51;62.37
71082;SHT31;58740;50.672;18.690;2022-07-29T12:59:16;22.52;62.24
71082;SHT31;58740;50.672;18.690;2022-07-29T13:01:52;22.55;63.34
71082;SHT31;58740;50.672;18.690;2022-07-29T13:04:26;22.61;62.95
71082;SHT31;58740;50.672;18.690;2022-07-29T13:07:03;22.67;63.18
71082;SHT31;58740;50.672;18.690;2022-07-29T13:09:37;22.72;62.85
71082;SHT31;58740;50.672;18.690;2022-07-29T13:12:09;22.75;62.80
71082;SHT31;58740;50.672;18.690;2022-07-29T13:14:41;22.81;63.24
71082;SHT31;58740;50.672;18.690;2022-07-29T13:17:15;22.83;62.87
71082;SHT31;58740;50.672;18.690;2022-07-29T13:19:52;22.82;62.06
71082;SHT31;58740;50.672;18.690;2022-07-29T13:22:36;22.80;62.49
71082;SHT31;58740;50.672;18.690;2022-07-29T13:25:04;22.74;62.52
71082;SHT31;58740;50.672;18.690;2022-07-29T13:27:34;22.64;63.34
71082;SHT31;58740;50.672;18.690;2022-07-29T13:30:05;22.52;63.94
71082;SHT31;58740;50.672;18.690;2022-07-29T13:32:36;22.42;64.42
71082;SHT31;58740;50.672;18.690;2022-07-29T13:35:05;22.33;64.89
71082;SHT31;58740;50.672;18.690;2022-07-29T13:37:35;22.30;65.33
71082;SHT31;58740;50.672;18.690;2022-07-29T13:40:09;22.25;66.02
71082;SHT31;58740;50.672;18.690;2022-07-29T13:42:38;22.18;66.26
71082;SHT31;58740;50.672;18.690;2022-07-29T13:45:07;22.11;66.59
71082;SHT31;58740;50.672;18.690;2022-07-29T13:47:37;22.07;67.56
71082;SHT31;58740;50.672;18.690;2022-07-29T13:50:05;22.02;68.70
71082;SHT31;58740;50.672;18.690;2022-07-29T13:52:37;21.98;69.40
71082;SHT31;58740;50.672;18.690;2022-07-29T13:55:05;21.96;69.98
71082;SHT31;58740;50.672;18.690;2022-07-29T13:57:34;21.94;70.08
71082;SHT31;58740;50.672;18.690;2022-07-29T14:00:02;21.94;69.84
71082;SHT31;58740;50.672;18.690;2022-07-29T14:02:31;21.92;70.61
71082;SHT31;58740;50.672;18.690;2022-07-29T14:05:00;21.87;69.40
71082;SHT31;58740;50.672;18.690;2022-07-29T14:07:34;21.83;69.12
71082;SHT31;58740;50.672;18.690;2022-07-29T14:10:02;21.80;68.90
71082;SHT31;58740;50.672;18.690;2022-07-29T14:12:31;21.74;68.69
71082;SHT31;58740;50.672;18.690;2022-07-29T14:14:59;21.71;68.55
71082;SHT31;58740;50.672;18.690;2022-07-29T14:17:26;21.68;68.68
71082;SHT31;58740;50.672;18.690;2022-07-29T14:19:54;21.62;68.50
71082;SHT31;58740;50.672;18.690;2022-07-29T14:22:22;21.54;68.47
71082;SHT31;58740;50.672;18.690;2022-07-29T14:24:51;21.48;68.13
71082;SHT31;58740;50.672;18.690;2022-07-29T14:27:19;21.43;68.62
71082;SHT31;58740;50.672;18.690;2022-07-29T14:30:05;21.40;69.09
71082;SHT31;58740;50.672;18.690;2022-07-29T14:32:34;21.37;69.25
71082;SHT31;58740;50.672;18.690;2022-07-29T14:35:02;21.37;69.22
71082;SHT31;58740;50.672;18.690;2022-07-29T14:37:30;21.37;69.24
71082;SHT31;58740;50.672;18.690;2022-07-29T14:40:07;21.36;69.37
71082;SHT31;58740;50.672;18.690;2022-07-29T14:42:37;21.31;69.63
71082;SHT31;58740;50.672;18.690;2022-07-29T14:45:06;21.29;69.43
71082;SHT31;58740;50.672;18.690;2022-07-29T14:47:36;21.28;69.31
71082;SHT31;58740;50.672;18.690;2022-07-29T14:50:05;21.29;69.29
71082;SHT31;58740;50.672;18.690;2022-07-29T14:52:34;21.30;69.15
71082;SHT31;58740;50.672;18.690;2022-07-29T14:55:03;21.31;69.14
71082;SHT31;58740;50.672;18.690;2022-07-29T14:57:46;21.32;69.22
71082;SHT31;58740;50.672;18.690;2022-07-29T15:00:16;21.35;69.45
71082;SHT31;58740;50.672;18.690;2022-07-29T15:02:44;21.37;69.24
71082;SHT31;58740;50.672;18.690;2022-07-29T15:05:28;21.41;69.21
71082;SHT31;58740;50.672;18.690;2022-07-29T15:07:57;21.45;69.58
71082;SHT31;58740;50.672;18.690;2022-07-29T15:10:26;21.48;69.97
71082;SHT31;58740;50.672;18.690;2022-07-29T15:12:56;21.49;70.02
71082;SHT31;58740;50.672;18.690;2022-07-29T15:15:23;21.51;70.44
71082;SHT31;58740;50.672;18.690;2022-07-29T15:17:51;21.53;70.80
71082;SHT31;58740;50.672;18.690;2022-07-29T15:20:19;21.52;71.03
71082;SHT31;58740;50.672;18.690;2022-07-29T15:22:48;21.53;70.98
71082;SHT31;58740;50.672;18.690;2022-07-29T15:25:16;21.55;70.94
71082;SHT31;58740;50.672;18.690;2022-07-29T15:27:43;21.59;70.99
71082;SHT31;58740;50.672;18.690;2022-07-29T15:30:19;21.60;71.18
71082;SHT31;58740;50.672;18.690;2022-07-29T15:33:01;21.62;71.01
71082;SHT31;58740;50.672;18.690;2022-07-29T15:35:30;21.64;71.03
71082;SHT31;58740;50.672;18.690;2022-07-29T15:38:07;21.63;71.04
71082;SHT31;58740;50.672;18.690;2022-07-29T15:40:36;21.61;71.06
71082;SHT31;58740;50.672;18.690;2022-07-29T15:43:06;21.64;71.23
71082;SHT31;58740;50.672;18.690;2022-07-29T15:45:35;21.65;71.30
71082;SHT31;58740;50.672;18.690;2022-07-29T15:48:08;21.65;71.26
71082;SHT31;58740;50.672;18.690;2022-07-29T15:50:41;21.66;71.36
71082;SHT31;58740;50.672;18.690;2022-07-29T15:53:13;21.68;71.54
71082;SHT31;58740;50.672;18.690;2022-07-29T15:55:41;21.69;71.33
71082;SHT31;58740;50.672;18.690;2022-07-29T15:58:10;21.70;71.51
71082;SHT31;58740;50.672;18.690;2022-07-29T16:00:38;21.74;71.53
71082;SHT31;58740;50.672;18.690;2022-07-29T16:03:06;21.77;71.70
71082;SHT31;58740;50.672;18.690;2022-07-29T16:05:34;21.78;71.04
71082;SHT31;58740;50.672;18.690;2022-07-29T16:08:03;21.81;70.78
71082;SHT31;58740;50.672;18.690;2022-07-29T16:10:32;21.82;70.86
71082;SHT31;58740;50.672;18.690;2022-07-29T16:12:59;21.84;71.15
71082;SHT31;58740;50.672;18.690;2022-07-29T16:15:28;21.84;71.17
71082;SHT31;58740;50.672;18.690;2022-07-29T16:17:55;21.86;70.85
71082;SHT31;58740;50.672;18.690;2022-07-29T16:20:23;21.89;70.80
71082;SHT31;58740;50.672;18.690;2022-07-29T16:22:51;21.92;70.72
71082;SHT31;58740;50.672;18.690;2022-07-29T16:25:18;21.96;70.60
71082;SHT31;58740;50.672;18.690;2022-07-29T16:27:46;21.97;71.29
71082;SHT31;58740;50.672;18.690;2022-07-29T16:30:14;21.97;71.62
71082;SHT31;58740;50.672;18.690;2022-07-29T16:32:42;21.97;70.80
71082;SHT31;58740;50.672;18.690;2022-07-29T16:35:09;22.00;70.51
71082;SHT31;58740;50.672;18.690;2022-07-29T16:37:38;22.01;69.87
71082;SHT31;58740;50.672;18.690;2022-07-29T16:40:06;22.02;69.38